Time;durP1;ratioP1;P1;durP2;ratioP2;P2;SDS_P1;SDS_P2;PMS_P1;PMS_P2;Temp;Humidity;BMP_temperature;BMP_pressure;BME280_temperature;BME280_humidity;BME280_pressure;Samples;Min_cycle;Max_cycle;Signal;HPM_P1;HPM_P2
2022/09/23 00:01:40;;;;;;;68.43;28.93;;;;;;;14.01;65.47;101558.81;4814357;29;119827;-72
2022/09/23 00:04:06;;;;;;;59.53;27.93;;;;;;;14.00;66.01;101553.75;4813893;29;119904;-75
2022/09/23 00:06:32;;;;;;;60.70;27.60;;;;;;;14.03;65.47;101548.09;4811738;29;119443;-72
2022/09/23 00:08:57;;;;;;;58.13;26.77;;;;;;;14.06;65.80;101552.69;4813434;29;122132;-72
2022/09/23 00:11:26;;;;;;;69.22;27.90;;;;;;;14.07;65.48;101550.72;4814168;29;119898;-72
2022/09/23 00:13:55;;;;;;;60.50;27.90;;;;;;;14.08;65.42;101549.50;4813439;29;119473;-72
2022/09/23 00:16:27;;;;;;;69.80;28.20;;;;;;;14.08;65.54;101541.97;4805083;29;119725;-74
2022/09/23 00:18:55;;;;;;;59.08;28.42;;;;;;;14.08;65.81;101544.72;4813458;29;120062;-74
2022/09/23 00:21:21;;;;;;;65.07;29.25;;;;;;;14.08;65.52;101536.47;4813460;29;121372;-72
2022/09/23 00:23:48;;;;;;;55.50;26.10;;;;;;;14.07;65.21;101545.97;4812840;29;119607;-74
2022/09/23 00:26:16;;;;;;;65.03;27.98;;;;;;;14.07;65.57;101543.19;4812099;29;119911;-72
2022/09/23 00:28:42;;;;;;;61.90;27.65;;;;;;;14.05;65.29;101542.13;4813087;29;120306;-72
2022/09/23 00:31:11;;;;;;;61.92;27.02;;;;;;;14.06;65.55;101538.91;4812420;29;119389;-72
2022/09/23 00:33:37;;;;;;;59.57;27.10;;;;;;;14.05;65.56;101537.38;4806117;29;120386;-74
2022/09/23 00:36:05;;;;;;;64.35;26.00;;;;;;;14.06;65.67;101535.38;4816173;29;120702;-72
2022/09/23 00:38:32;;;;;;;51.95;26.30;;;;;;;14.07;65.24;101526.66;4813790;29;119744;-72
2022/09/23 00:40:59;;;;;;;70.05;25.70;;;;;;;14.08;65.69;101521.91;4791955;29;120849;-74
2022/09/23 00:43:45;;;;;;;52.83;24.98;;;;;;;14.09;65.45;101529.72;4812689;29;120290;-72
2022/09/23 00:46:19;;;;;;;62.60;26.10;;;;;;;14.11;65.86;101532.78;4790469;29;119873;-74
2022/09/23 00:48:47;;;;;;;57.83;25.30;;;;;;;14.10;65.84;101520.22;4814566;29;119661;-72
2022/09/23 00:51:18;;;;;;;49.03;23.25;;;;;;;14.13;65.48;101526.81;4813147;28;120048;-72
2022/09/23 00:53:47;;;;;;;71.80;25.85;;;;;;;14.14;65.79;101520.84;4798929;29;119999;-72
2022/09/23 00:56:14;;;;;;;65.37;26.83;;;;;;;14.18;66.49;101526.22;4804401;29;120783;-72
2022/09/23 00:58:43;;;;;;;66.25;25.95;;;;;;;14.21;65.95;101522.56;4793679;29;119970;-73
2022/09/23 01:01:11;;;;;;;55.45;25.48;;;;;;;14.22;65.79;101526.09;4806000;29;120336;-74
2022/09/23 01:03:36;;;;;;;80.13;26.15;;;;;;;14.24;65.95;101524.41;4800517;29;119601;-72
2022/09/23 01:06:03;;;;;;;60.72;24.85;;;;;;;14.23;65.77;101513.84;4813874;29;119638;-72
2022/09/23 01:08:30;;;;;;;54.03;23.67;;;;;;;14.25;65.80;101509.41;4812913;29;119869;-71
2022/09/23 01:11:15;;;;;;;67.18;25.05;;;;;;;14.25;65.41;101503.88;4813744;29;119977;-72
2022/09/23 01:13:59;;;;;;;53.40;23.50;;;;;;;14.24;65.63;101507.09;4811913;29;119498;-72
2022/09/23 01:16:57;;;;;;;54.43;25.17;;;;;;;14.22;66.07;101501.25;4808250;29;119693;-74
2022/09/23 01:19:55;;;;;;;58.92;26.02;;;;;;;14.16;65.97;101494.78;4811281;29;119794;-72
2022/09/23 01:22:36;;;;;;;56.00;23.70;;;;;;;14.14;65.52;101493.25;4818422;29;120227;-72
2022/09/23 01:25:30;;;;;;;59.07;22.77;;;;;;;14.14;65.52;101495.25;4803043;29;120134;-72
2022/09/23 01:28:11;;;;;;;67.30;24.02;;;;;;;14.12;65.71;101489.41;4799753;29;121333;-72
2022/09/23 01:30:48;;;;;;;53.10;22.87;;;;;;;14.10;65.35;101489.88;4812968;29;120190;-72
2022/09/23 01:33:38;;;;;;;59.93;25.27;;;;;;;14.08;66.21;101486.81;4808171;29;120065;-72
2022/09/23 01:36:08;;;;;;;52.03;23.45;;;;;;;14.07;66.23;101479.75;4808268;29;120083;-73
2022/09/23 01:38:40;;;;;;;61.38;23.30;;;;;;;14.07;65.78;101481.75;4796971;29;119940;-72
2022/09/23 01:41:18;;;;;;;57.55;23.30;;;;;;;14.07;65.45;101474.22;4814272;29;119738;-75
2022/09/23 01:43:57;;;;;;;56.50;23.65;;;;;;;14.04;65.59;101466.88;4803318;29;119530;-72
2022/09/23 01:46:31;;;;;;;56.00;22.35;;;;;;;14.04;65.73;101469.63;4814149;29;121171;-74
2022/09/23 01:49:18;;;;;;;76.57;23.35;;;;;;;14.01;65.54;101473.28;4809580;29;119342;-73
2022/09/23 01:51:59;;;;;;;50.15;23.50;;;;;;;14.01;65.73;101467.00;4811174;29;119451;-74
2022/09/23 01:54:35;;;;;;;47.90;22.40;;;;;;;13.98;65.80;101470.69;4805580;29;119611;-72
2022/09/23 01:57:15;;;;;;;55.38;23.48;;;;;;;13.97;66.02;101477.44;4798184;29;121257;-73
2022/09/23 01:59:48;;;;;;;47.80;22.52;;;;;;;13.94;66.01;101468.03;4805130;29;120249;-73
2022/09/23 02:02:20;;;;;;;47.72;22.00;;;;;;;13.97;65.65;101471.91;4796015;29;119349;-73
2022/09/23 02:05:09;;;;;;;53.95;22.77;;;;;;;13.95;65.83;101469.59;4796876;29;120677;-72
2022/09/23 02:07:44;;;;;;;53.50;21.88;;;;;;;13.94;65.98;101470.81;4810060;29;119588;-74
2022/09/23 02:10:15;;;;;;;58.33;20.70;;;;;;;13.95;65.76;101474.31;4817394;29;119967;-72
2022/09/23 02:12:45;;;;;;;58.22;20.73;;;;;;;13.95;65.67;101463.28;4810708;29;119683;-72
2022/09/23 02:15:17;;;;;;;49.13;21.47;;;;;;;13.95;65.98;101464.06;4810500;29;120154;-72
2022/09/23 02:17:50;;;;;;;64.40;22.30;;;;;;;13.97;66.12;101461.66;4816521;29;119301;-75
2022/09/23 02:20:22;;;;;;;51.28;21.92;;;;;;;13.99;66.40;101461.94;4810268;29;119889;-71
2022/09/23 02:23:08;;;;;;;71.17;22.13;;;;;;;13.98;66.35;101460.41;4816841;29;119950;-71
2022/09/23 02:25:52;;;;;;;53.25;20.42;;;;;;;13.98;66.13;101448.63;4789278;29;119909;-71
2022/09/23 02:28:22;;;;;;;57.97;21.80;;;;;;;13.95;66.05;101447.50;4798870;29;121261;-71
2022/09/23 02:31:00;;;;;;;55.25;20.50;;;;;;;13.97;66.05;101447.84;4811446;29;119551;-72
2022/09/23 02:34:21;;;;;;;54.08;20.77;;;;;;;13.97;66.05;101439.56;4816225;29;119907;-72
2022/09/23 02:37:19;;;;;;;54.37;21.80;;;;;;;13.95;66.01;101439.25;4763371;29;120093;-71
2022/09/23 02:39:54;;;;;;;54.13;20.58;;;;;;;13.95;66.30;101438.47;4810560;29;119846;-74
2022/09/23 02:42:27;;;;;;;56.45;21.65;;;;;;;13.94;66.15;101431.41;4813037;29;119763;-73
2022/09/23 02:44:53;;;;;;;52.10;19.85;;;;;;;13.95;65.64;101435.72;4813631;29;119509;-72
2022/09/23 02:47:23;;;;;;;47.08;20.88;;;;;;;13.95;66.25;101430.19;4807398;29;121164;-72
2022/09/23 02:49:48;;;;;;;56.33;19.13;;;;;;;13.95;65.93;101435.72;4798173;29;123109;-72
2022/09/23 02:52:16;;;;;;;54.93;19.47;;;;;;;13.95;65.96;101430.97;4815501;29;119862;-71
2022/09/23 02:54:43;;;;;;;57.65;20.00;;;;;;;13.96;66.08;101432.53;4817416;29;120939;-71
2022/09/23 02:57:09;;;;;;;71.65;21.08;;;;;;;13.96;65.90;101435.28;4810983;29;119587;-74
2022/09/23 02:59:38;;;;;;;49.63;19.13;;;;;;;14.00;65.73;101430.38;4812856;29;119628;-72
2022/09/23 03:02:28;;;;;;;42.23;19.73;;;;;;;13.99;65.94;101426.09;4813175;29;120006;-72
2022/09/23 03:05:23;;;;;;;70.40;20.33;;;;;;;13.97;65.68;101417.50;4809559;29;120260;-71
2022/09/23 03:08:21;;;;;;;46.70;18.73;;;;;;;13.96;65.96;101424.25;4798268;29;119773;-73
2022/09/23 03:11:05;;;;;;;54.85;20.20;;;;;;;13.95;66.36;101419.94;4796633;29;119760;-71
2022/09/23 03:13:49;;;;;;;44.28;19.10;;;;;;;13.92;66.18;101409.81;4811926;29;119952;-72
2022/09/23 03:16:19;;;;;;;48.63;19.63;;;;;;;13.93;65.91;101413.34;4812907;29;119979;-71
2022/09/23 03:19:00;;;;;;;51.78;19.10;;;;;;;13.94;66.02;101406.59;4820261;29;119752;-72
2022/09/23 03:21:55;;;;;;;62.15;19.45;;;;;;;13.94;66.36;101401.84;4801442;29;120145;-73
2022/09/23 03:24:23;;;;;;;62.08;18.40;;;;;;;13.94;66.31;101390.81;4813309;29;121378;-73
2022/09/23 03:26:52;;;;;;;43.72;18.58;;;;;;;13.96;66.15;101399.44;4816801;29;120204;-71
2022/09/23 03:29:20;;;;;;;47.75;17.88;;;;;;;13.95;66.47;101389.59;4804818;29;119867;-71
2022/09/23 03:31:46;;;;;;;47.40;17.48;;;;;;;13.96;65.54;101388.41;4812181;29;119597;-72
2022/09/23 03:34:23;;;;;;;55.23;18.40;;;;;;;13.96;65.97;101391.16;4813836;29;119970;-71
2022/09/23 03:37:24;;;;;;;49.13;18.65;;;;;;;13.93;65.79;101383.00;4783354;29;119522;-72
2022/09/23 03:40:01;;;;;;;41.20;18.15;;;;;;;13.92;65.72;101381.47;4775392;29;121317;-72
2022/09/23 03:42:30;;;;;;;48.60;18.27;;;;;;;13.87;66.09;101371.81;4782557;29;119498;-72
2022/09/23 03:44:56;;;;;;;50.58;18.80;;;;;;;13.87;65.93;101374.56;4793136;29;120973;-72
2022/09/23 03:47:25;;;;;;;43.50;17.40;;;;;;;13.86;66.17;101369.50;4793922;29;119332;-71
2022/09/23 03:49:51;;;;;;;57.30;19.02;;;;;;;13.86;66.48;101372.25;4786381;29;119866;-72
2022/09/23 03:52:22;;;;;;;49.38;18.20;;;;;;;13.85;66.15;101371.50;4793560;29;120389;-73
2022/09/23 03:54:48;;;;;;;47.63;16.77;;;;;;;13.87;66.50;101368.28;4747354;29;119726;-72
2022/09/23 03:57:14;;;;;;;46.65;16.42;;;;;;;13.88;65.95;101367.81;4778394;29;120155;-71
2022/09/23 03:59:40;;;;;;;51.95;16.63;;;;;;;13.87;65.61;101357.25;4793186;29;120440;-71
2022/09/23 04:02:07;;;;;;;54.15;18.00;;;;;;;13.89;65.90;101360.31;4778702;29;119767;-73
2022/09/23 04:04:37;;;;;;;49.55;16.88;;;;;;;13.87;65.71;101360.00;4764629;29;121144;-71
2022/09/23 04:07:03;;;;;;;53.78;17.20;;;;;;;13.82;66.46;101355.88;4772838;29;120161;-73
2022/09/23 04:09:29;;;;;;;57.08;19.33;;;;;;;13.85;66.08;101354.97;4762482;29;119891;-71
2022/09/23 04:11:55;;;;;;;61.20;18.43;;;;;;;13.81;nan;101346.06;4805166;29;121626;-71
2022/09/23 04:14:21;;;;;;;49.00;17.63;;;;;;;13.82;65.49;101353.88;4795448;29;120170;-73
2022/09/23 04:16:49;;;;;;;47.67;17.88;;;;;;;13.81;65.96;101355.09;4814792;29;119248;-72
2022/09/23 04:19:15;;;;;;;55.13;17.27;;;;;;;13.79;65.78;101352.03;4811189;29;119878;-72
2022/09/23 04:21:43;;;;;;;41.60;16.98;;;;;;;13.80;65.79;101352.81;4798132;29;119377;-71
2022/09/23 04:24:11;;;;;;;47.55;16.50;;;;;;;13.78;65.71;101355.25;4810501;29;120302;-72
2022/09/23 04:26:38;;;;;;;37.42;16.20;;;;;;;13.78;65.73;101344.22;4815173;29;119948;-71
2022/09/23 04:29:04;;;;;;;61.80;18.70;;;;;;;13.77;66.41;101348.97;4810314;29;120340;-71
2022/09/23 04:31:31;;;;;;;62.50;18.40;;;;;;;13.75;65.64;101342.38;4803732;29;119814;-72
2022/09/23 04:33:58;;;;;;;59.50;16.63;;;;;;;13.72;65.82;101335.78;4813058;29;120304;-71
2022/09/23 04:36:24;;;;;;;59.28;16.92;;;;;;;13.74;66.38;101343.59;4808370;29;119267;-73
2022/09/23 04:38:50;;;;;;;43.03;16.77;;;;;;;13.73;65.99;101331.81;4810934;29;120257;-72
2022/09/23 04:41:17;;;;;;;47.33;17.45;;;;;;;13.74;66.22;101336.09;4813291;29;120343;-72
2022/09/23 04:43:44;;;;;;;52.47;17.20;;;;;;;13.73;65.93;101336.56;4809063;29;120846;-71
2022/09/23 04:46:12;;;;;;;45.67;16.80;;;;;;;13.74;66.14;101332.56;4796136;29;121177;-72
2022/09/23 04:48:40;;;;;;;51.92;15.45;;;;;;;13.72;65.83;101333.03;4812227;29;119945;-73
2022/09/23 04:51:14;;;;;;;54.97;17.05;;;;;;;13.72;66.11;101330.28;4806328;29;120181;-72
2022/09/23 04:53:42;;;;;;;37.58;15.00;;;;;;;13.70;65.84;101324.44;4796936;29;119450;-72
2022/09/23 04:56:11;;;;;;;45.80;15.23;;;;;;;13.72;66.01;101318.47;4801984;29;119393;-71
2022/09/23 04:58:38;;;;;;;53.03;16.00;;;;;;;13.73;66.33;101325.53;4810819;29;120049;-73
2022/09/23 05:01:25;;;;;;;37.00;15.27;;;;;;;13.74;66.07;101324.31;4811448;29;119917;-72
2022/09/23 05:04:13;;;;;;;44.10;15.48;;;;;;;13.74;65.58;101322.31;4811582;29;119766;-72
2022/09/23 05:06:39;;;;;;;50.13;15.55;;;;;;;13.72;65.84;101313.75;4811984;29;120316;-74
2022/09/23 05:09:07;;;;;;;54.03;15.40;;;;;;;13.71;66.13;101314.94;4814382;29;119621;-72
2022/09/23 05:11:35;;;;;;;56.58;16.00;;;;;;;13.71;65.68;101320.44;4812885;29;120736;-71
2022/09/23 05:14:02;;;;;;;42.67;14.93;;;;;;;13.69;65.61;101325.66;4807187;29;119859;-72
2022/09/23 05:16:28;;;;;;;26.75;14.90;;;;;;;13.68;65.31;101324.13;4807017;29;120951;-72
2022/09/23 05:18:54;;;;;;;50.20;14.95;;;;;;;13.65;65.63;101325.03;4803731;29;119478;-73
2022/09/23 05:21:22;;;;;;;47.72;15.27;;;;;;;13.64;65.73;101322.75;4813681;29;119651;-74
2022/09/23 05:23:53;;;;;;;32.55;13.73;;;;;;;13.63;65.24;101321.97;4810917;29;119553;-71
2022/09/23 05:26:19;;;;;;;51.35;15.18;;;;;;;13.61;65.97;101318.91;4811799;29;120472;-72
2022/09/23 05:28:45;;;;;;;55.05;15.55;;;;;;;13.62;65.86;101317.69;4805645;29;120021;-72
2022/09/23 05:31:14;;;;;;;59.83;14.93;;;;;;;13.61;65.84;101313.38;4815675;29;119264;-71
2022/09/23 05:33:42;;;;;;;48.40;15.15;;;;;;;13.61;66.08;101321.66;4805684;29;119694;-75
2022/09/23 05:36:08;;;;;;;38.50;14.57;;;;;;;13.61;65.99;101320.91;4810084;29;119378;-71
2022/09/23 05:38:35;;;;;;;44.38;14.45;;;;;;;13.61;66.01;101313.38;4812091;29;119841;-73
2022/09/23 05:41:09;;;;;;;41.47;14.60;;;;;;;13.63;65.83;101318.44;4806560;29;119752;-71
2022/09/23 05:43:36;;;;;;;45.22;14.93;;;;;;;13.63;65.67;101321.22;4813137;29;119693;-72
2022/09/23 05:46:08;;;;;;;47.13;15.38;;;;;;;13.62;65.86;101308.66;4808517;29;119900;-71
2022/09/23 05:48:35;;;;;;;43.30;14.63;;;;;;;13.61;65.53;101313.38;4809424;29;120362;-69
2022/09/23 05:51:18;;;;;;;54.45;17.30;;;;;;;13.58;65.47;101311.56;4807054;29;119824;-72
2022/09/23 05:53:45;;;;;;;35.85;14.82;;;;;;;13.60;65.82;101311.09;4810086;29;119696;-72
2022/09/23 05:56:12;;;;;;;56.93;16.47;;;;;;;13.60;66.35;101308.34;4808006;29;119319;-72
2022/09/23 05:58:39;;;;;;;61.72;15.70;;;;;;;13.57;65.58;101312.78;4809602;29;122626;-72
2022/09/23 06:01:13;;;;;;;62.13;16.17;;;;;;;13.59;65.62;101326.88;4791464;29;120179;-72
2022/09/23 06:03:46;;;;;;;52.85;16.38;;;;;;;13.60;65.58;101319.38;4792571;29;120825;-72
2022/09/23 06:06:13;;;;;;;50.07;15.90;;;;;;;13.62;65.69;101319.66;4811711;29;119613;-72
2022/09/23 06:08:39;;;;;;;48.70;14.77;;;;;;;13.60;65.48;101322.13;4811510;29;119833;-72
2022/09/23 06:11:06;;;;;;;43.72;14.68;;;;;;;13.64;65.71;101318.00;4811520;29;119744;-72
2022/09/23 06:13:35;;;;;;;58.65;15.77;;;;;;;13.64;65.99;101326.25;4811676;29;119574;-72
2022/09/23 06:16:01;;;;;;;49.43;14.43;;;;;;;13.64;65.91;101319.97;4813129;29;119825;-72
2022/09/23 06:18:26;;;;;;;60.47;13.90;;;;;;;13.65;65.30;101316.75;4805429;29;120837;-72
2022/09/23 06:20:52;;;;;;;59.38;13.68;;;;;;;13.68;65.49;101323.34;4794188;29;119849;-72
2022/09/23 06:23:18;;;;;;;36.85;11.90;;;;;;;13.72;65.25;101332.25;4809951;29;120125;-72
2022/09/23 06:25:44;;;;;;;47.35;13.18;;;;;;;13.72;65.57;101315.69;4808199;29;119538;-72
2022/09/23 06:28:49;;;;;;;48.10;13.67;;;;;;;13.76;65.74;101324.63;4745302;29;119929;-72
2022/09/23 06:31:26;;;;;;;42.92;12.77;;;;;;;13.81;65.41;101324.00;4759651;29;119779;-72
2022/09/23 06:33:52;;;;;;;56.17;12.98;;;;;;;13.85;65.54;101323.84;4740010;29;120305;-73
2022/09/23 06:36:18;;;;;;;50.90;13.20;;;;;;;13.85;65.58;101321.88;4758539;29;120026;-73
2022/09/23 06:38:44;;;;;;;54.53;12.97;;;;;;;13.92;66.05;101329.06;4739141;29;119930;-73
2022/09/23 06:41:11;;;;;;;37.80;11.25;;;;;;;13.98;65.32;101327.25;4739023;29;119846;-73
2022/09/23 06:43:36;;;;;;;41.67;11.52;;;;;;;14.06;65.74;101328.47;4765082;29;120200;-73
2022/09/23 06:46:04;;;;;;;50.53;12.35;;;;;;;14.11;65.76;101333.38;4756431;29;120005;-73
2022/09/23 06:48:33;;;;;;;48.90;11.85;;;;;;;14.17;65.97;101328.78;4733400;29;119991;-71
2022/09/23 06:51:02;;;;;;;44.90;11.95;;;;;;;14.28;65.84;101326.34;4747101;29;120467;-71
2022/09/23 06:53:31;;;;;;;43.42;10.80;;;;;;;14.38;65.38;101335.38;4750839;29;120190;-72
2022/09/23 06:56:29;;;;;;;43.33;11.07;;;;;;;14.48;65.54;101325.91;4713882;29;120086;-71
2022/09/23 06:58:55;;;;;;;46.03;10.80;;;;;;;14.59;65.75;101323.44;4750087;29;120316;-72
2022/09/23 07:01:22;;;;;;;59.92;10.90;;;;;;;14.68;65.44;101319.91;4804035;29;119808;-72
2022/09/23 07:03:47;;;;;;;49.07;9.73;;;;;;;14.77;65.30;101328.16;4804495;29;119928;-72
2022/09/23 07:06:14;;;;;;;57.75;10.10;;;;;;;14.83;64.50;101331.06;4806412;29;120336;-71
2022/09/23 07:08:43;;;;;;;40.25;9.05;;;;;;;14.89;64.88;101329.19;4807617;29;120146;-71
2022/09/23 07:11:11;;;;;;;42.90;8.60;;;;;;;14.92;64.51;101328.28;4807719;29;120060;-72
2022/09/23 07:13:39;;;;;;;55.72;10.75;;;;;;;15.00;64.67;101332.25;4807303;29;120097;-72
2022/09/23 07:16:05;;;;;;;62.13;9.85;;;;;;;15.05;64.59;101326.09;4804800;29;120017;-72
2022/09/23 07:18:33;;;;;;;33.60;8.60;;;;;;;15.09;64.49;101331.44;4807182;29;119442;-71
2022/09/23 07:21:14;;;;;;;45.50;8.90;;;;;;;15.13;64.38;101334.81;4809019;29;120034;-72
2022/09/23 07:23:49;;;;;;;50.73;9.37;;;;;;;15.20;64.16;101329.72;4804603;29;119561;-71
2022/09/23 07:26:16;;;;;;;55.40;9.57;;;;;;;15.26;64.99;101329.84;4808462;29;120314;-72
2022/09/23 07:28:42;;;;;;;36.58;7.97;;;;;;;15.31;63.87;101329.97;4790370;29;120111;-71
2022/09/23 07:31:13;;;;;;;33.87;7.83;;;;;;;15.37;63.80;101330.09;4806801;29;119946;-71
2022/09/23 07:33:42;;;;;;;27.30;6.95;;;;;;;15.42;63.32;101332.25;4804744;29;121036;-72
2022/09/23 07:36:17;;;;;;;17.17;5.95;;;;;;;15.46;62.96;101332.06;4806613;29;119871;-72
2022/09/23 07:38:44;;;;;;;28.17;7.10;;;;;;;15.51;63.19;101326.66;4807566;29;119988;-72
2022/09/23 07:41:20;;;;;;;12.70;5.50;;;;;;;15.57;62.97;101333.06;4794967;29;120573;-71
2022/09/23 07:43:54;;;;;;;39.70;7.10;;;;;;;15.65;63.17;101328.00;4791941;29;119562;-72
2022/09/23 07:46:20;;;;;;;33.42;6.63;;;;;;;15.73;62.39;101317.34;4819113;28;121191;-71
2022/09/23 07:48:45;;;;;;;45.08;7.35;;;;;;;15.83;63.00;101325.13;4808626;29;119967;-72
2022/09/23 07:51:17;;;;;;;32.97;7.07;;;;;;;15.93;62.38;101323.84;4807649;29;119896;-71
2022/09/23 07:53:48;;;;;;;32.42;6.55;;;;;;;15.95;61.66;101313.06;4805663;29;120501;-72
2022/09/23 07:56:42;;;;;;;31.65;6.90;;;;;;;16.02;61.17;101316.69;4801967;29;120255;-71
2022/09/23 07:59:14;;;;;;;45.53;7.00;;;;;;;16.10;61.46;101312.34;4805161;29;120449;-72
2022/09/23 08:01:46;;;;;;;37.27;7.30;;;;;;;16.21;61.22;101312.56;4804724;29;120309;-71
2022/09/23 08:04:17;;;;;;;22.60;6.07;;;;;;;16.38;61.11;101308.09;4808201;29;119963;-71
2022/09/23 08:06:45;;;;;;;41.95;6.95;;;;;;;16.51;60.86;101310.59;4808527;29;119941;-71
2022/09/23 08:09:11;;;;;;;28.47;6.17;;;;;;;16.69;60.90;101304.13;4805268;29;120059;-71
2022/09/23 08:11:40;;;;;;;36.33;6.15;;;;;;;16.80;59.43;101304.34;4807032;29;120427;-72
2022/09/23 08:14:08;;;;;;;44.93;6.90;;;;;;;16.88;59.14;101299.94;4804786;29;120000;-72
2022/09/23 08:16:34;;;;;;;37.87;6.37;;;;;;;16.97;59.23;101305.34;4823970;28;120075;-72
2022/09/23 08:19:01;;;;;;;37.45;6.95;;;;;;;17.04;59.36;101290.38;4805455;29;120161;-72
2022/09/23 08:21:27;;;;;;;56.65;7.68;;;;;;;17.13;59.24;101290.25;4805452;29;120666;-72
2022/09/23 08:23:53;;;;;;;26.55;5.90;;;;;;;17.28;60.35;101293.00;4807683;29;119642;-72
2022/09/23 08:26:18;;;;;;;45.77;6.77;;;;;;;17.42;60.11;101292.16;4806165;29;119883;-72
2022/09/23 08:28:44;;;;;;;40.65;6.50;;;;;;;17.58;58.44;101302.75;4810199;29;119942;-72
2022/09/23 08:31:12;;;;;;;42.38;6.32;;;;;;;17.66;59.46;101292.00;4806178;29;120036;-72
2022/09/23 08:33:42;;;;;;;20.27;5.35;;;;;;;17.83;57.65;101295.00;4805086;29;120248;-71
2022/09/23 08:36:08;;;;;;;58.65;7.32;;;;;;;17.87;57.87;101295.56;4806831;29;119927;-74
2022/09/23 08:38:34;;;;;;;42.45;5.80;;;;;;;17.97;58.82;101296.94;4806729;29;120022;-74
2022/09/23 08:41:36;;;;;;;22.42;5.10;;;;;;;18.09;57.05;101296.59;4804800;29;122098;-74
2022/09/23 08:44:09;;;;;;;33.43;5.97;;;;;;;18.21;56.85;101296.69;4789122;29;120237;-74
2022/09/23 08:47:26;;;;;;;51.23;6.77;;;;;;;18.33;57.40;101298.34;4795783;29;120470;-74
2022/09/23 08:50:07;;;;;;;34.17;6.25;;;;;;;18.44;55.97;101295.69;4807319;29;119926;-74
2022/09/23 08:52:49;;;;;;;27.58;5.38;;;;;;;18.53;55.55;101298.31;4809061;29;120429;-74
2022/09/23 08:55:19;;;;;;;56.78;7.05;;;;;;;18.62;56.18;101292.59;4806016;29;120647;-74
2022/09/23 08:58:20;;;;;;;29.77;5.55;;;;;;;18.68;55.59;101300.97;4803863;29;120125;-74
2022/09/23 09:01:24;;;;;;;23.13;5.20;;;;;;;18.74;55.20;101287.16;4805673;29;120690;-74
2022/09/23 09:03:50;;;;;;;18.52;5.10;;;;;;;18.69;55.07;101288.63;4812419;29;119963;-74
2022/09/23 09:06:24;;;;;;;60.70;7.70;;;;;;;18.68;56.40;101287.09;4805406;29;120426;-74
2022/09/23 09:08:56;;;;;;;52.97;7.57;;;;;;;18.67;55.94;101278.00;4822546;28;120423;-74
2022/09/23 09:11:32;;;;;;;47.55;6.22;;;;;;;18.70;56.05;101282.59;4810944;29;120525;-74
2022/09/23 09:14:26;;;;;;;39.50;6.65;;;;;;;18.80;56.00;101282.41;4794604;29;120278;-74
2022/09/23 09:17:01;;;;;;;60.50;8.15;;;;;;;18.89;55.99;101273.88;4802510;29;120003;-74
2022/09/23 09:20:03;;;;;;;33.28;5.72;;;;;;;18.95;56.05;101272.69;4804205;29;120339;-74
2022/09/23 09:22:51;;;;;;;53.33;6.13;;;;;;;18.99;56.26;101281.53;4780271;29;120236;-74
2022/09/23 09:25:40;;;;;;;54.33;7.30;;;;;;;19.06;56.07;101280.31;4806281;29;119959;-74
2022/09/23 09:28:41;;;;;;;59.13;6.93;;;;;;;19.14;56.38;101269.50;4803364;29;120064;-74
2022/09/23 09:31:26;;;;;;;44.42;6.60;;;;;;;19.23;56.28;101274.88;4820667;29;120073;-74
2022/09/23 09:33:56;;;;;;;43.22;5.95;;;;;;;19.29;56.10;101272.88;4801823;29;120153;-74
2022/09/23 09:36:52;;;;;;;44.92;5.78;;;;;;;19.32;55.66;101263.53;4813466;29;119911;-74
2022/09/23 09:39:18;;;;;;;46.58;6.60;;;;;;;19.35;57.10;101251.41;4807377;29;120842;-74
2022/09/23 09:41:48;;;;;;;40.95;6.85;;;;;;;19.43;55.19;101249.72;4797132;29;120148;-71
2022/09/23 09:44:23;;;;;;;42.28;6.70;;;;;;;19.52;56.01;101255.06;4825627;28;120007;-72
2022/09/23 09:47:11;;;;;;;54.22;6.20;;;;;;;19.58;54.15;101247.50;4814477;29;120166;-75
2022/09/23 09:49:45;;;;;;;43.50;6.23;;;;;;;19.66;53.81;101255.41;4803511;29;119970;-74
2022/09/23 09:52:21;;;;;;;37.15;6.03;;;;;;;19.74;53.73;101248.09;4810732;29;119607;-74
2022/09/23 09:54:49;;;;;;;58.77;6.93;;;;;;;19.83;54.04;101245.06;4811580;29;119934;-74
2022/09/23 09:57:22;;;;;;;49.15;5.30;;;;;;;19.84;54.14;101224.31;4796024;29;119775;-74
2022/09/23 09:59:48;;;;;;;21.90;4.70;;;;;;;20.04;54.71;101238.06;4810907;29;120083;-76
2022/09/23 10:02:28;;;;;;;35.17;5.80;;;;;;;20.20;54.36;101240.13;4813438;29;120097;-74
2022/09/23 10:04:57;;;;;;;40.42;5.38;;;;;;;20.28;53.54;101234.03;4805397;29;120376;-74
2022/09/23 10:07:27;;;;;;;66.53;7.25;;;;;;;20.41;53.01;101231.56;4808394;29;121028;-75
2022/09/23 10:09:53;;;;;;;62.47;5.85;;;;;;;20.36;53.68;101229.50;4815917;29;119904;-72
2022/09/23 10:12:25;;;;;;;36.97;5.30;;;;;;;20.33;53.73;101224.91;4813056;29;120049;-71
2022/09/23 10:14:56;;;;;;;13.75;3.60;;;;;;;20.31;53.73;101219.84;4789785;29;122637;-71
2022/09/23 10:17:23;;;;;;;51.75;5.38;;;;;;;20.32;52.82;101226.94;4807922;29;119594;-72
2022/09/23 10:19:59;;;;;;;46.22;5.45;;;;;;;20.29;53.23;101218.84;4810953;29;119936;-75
2022/09/23 10:22:32;;;;;;;56.58;6.70;;;;;;;20.27;53.38;101218.59;4805628;29;121126;-75
2022/09/23 10:25:07;;;;;;;50.35;6.07;;;;;;;20.25;53.88;101216.31;4824965;28;119765;-72
2022/09/23 10:27:35;;;;;;;61.58;5.88;;;;;;;20.27;54.65;101226.94;4804353;29;120700;-72
2022/09/23 10:30:23;;;;;;;14.18;3.85;;;;;;;20.26;54.30;101211.50;4805549;29;120092;-72
2022/09/23 10:32:50;;;;;;;32.53;4.10;;;;;;;20.27;54.07;101213.03;4810507;29;119605;-72
2022/09/23 10:35:22;;;;;;;21.73;3.67;;;;;;;20.31;53.90;101219.84;4805991;29;120168;-71
2022/09/23 10:37:53;;;;;;;38.97;5.72;;;;;;;20.31;53.12;101210.75;4808075;29;119945;-72
2022/09/23 10:49:08;;;;;;;14.18;3.38;;;;;;;20.39;54.27;101211.78;4810292;29;119877;-76
2022/09/23 10:51:53;;;;;;;33.05;4.80;;;;;;;20.39;54.25;101209.75;4793718;29;119601;-73
2022/09/23 10:55:03;;;;;;;56.75;5.68;;;;;;;20.39;53.46;101209.00;4789786;29;121831;-74
2022/09/23 10:57:41;;;;;;;28.77;4.93;;;;;;;20.33;53.17;101213.78;4791780;29;121034;-72
2022/09/23 11:00:36;;;;;;;20.20;4.13;;;;;;;20.28;53.48;101208.97;4807654;29;119634;-73
2022/09/23 11:03:15;;;;;;;22.00;4.55;;;;;;;20.26;53.70;101203.16;4825312;28;119971;-72
2022/09/23 11:06:02;;;;;;;31.70;4.95;;;;;;;20.23;53.56;101202.13;4791717;29;120883;-72
2022/09/23 11:08:28;;;;;;;32.15;5.78;;;;;;;20.22;53.63;101208.97;4811080;29;120208;-74
2022/09/23 11:11:10;;;;;;;23.90;3.83;;;;;;;20.16;52.76;101197.84;4809441;29;119973;-72
2022/09/23 11:13:51;;;;;;;20.67;3.55;;;;;;;20.16;54.22;101192.25;4826214;29;121923;-73
2022/09/23 11:16:26;;;;;;;23.25;4.35;;;;;;;20.17;54.13;101188.22;4806914;29;119827;-71
2022/09/23 11:19:03;;;;;;;58.15;6.53;;;;;;;20.18;54.16;101186.94;4808477;29;119572;-74
2022/09/23 11:21:51;;;;;;;25.77;5.32;;;;;;;20.19;53.92;101185.69;4804602;29;120035;-72
2022/09/23 11:24:48;;;;;;;56.03;5.88;;;;;;;20.18;54.05;101186.94;4807137;29;120171;-72
2022/09/23 11:27:28;;;;;;;45.58;5.63;;;;;;;20.19;54.01;101196.81;4802300;29;121461;-72
2022/09/23 11:30:12;;;;;;;46.05;4.93;;;;;;;20.22;54.54;101187.44;4809086;29;119771;-74
2022/09/23 11:33:02;;;;;;;42.47;5.70;;;;;;;20.23;53.83;101186.19;4808686;29;120067;-72
2022/09/23 11:35:31;;;;;;;12.13;3.65;;;;;;;20.26;54.64;101186.44;4810062;29;122214;-72
2022/09/23 11:38:06;;;;;;;33.97;4.75;;;;;;;20.30;54.87;101189.72;4794247;29;121579;-72
2022/09/23 11:40:38;;;;;;;36.93;5.40;;;;;;;20.36;54.88;101182.91;4807223;29;120913;-72
2022/09/23 11:43:33;;;;;;;21.85;4.63;;;;;;;20.40;53.82;101185.44;4807730;29;119945;-72